createdAt,value
2016-10-08T00:01:08.215Z,59.88
2016-10-08T00:02:21.180Z,59.69
2016-10-08T00:03:34.175Z,59.97
2016-10-08T00:04:47.077Z,60.17
2016-10-08T00:05:59.995Z,60.17
2016-10-08T00:07:12.617Z,59.88
2016-10-08T00:08:25.606Z,60.24
2016-10-08T00:09:39.322Z,59.88
2016-10-08T00:10:51.746Z,59.97
2016-10-08T00:12:04.703Z,60.27
2016-10-08T00:13:18.200Z,60.62
2016-10-08T00:14:31.168Z,60.81
2016-10-08T00:15:43.947Z,60.72
2016-10-08T00:16:57.497Z,60.52
2016-10-08T00:18:10.458Z,61
2016-10-08T00:19:22.909Z,60.72
2016-10-08T00:20:36.008Z,60.62
2016-10-08T00:21:49.266Z,61.19
2016-10-08T00:23:02.731Z,61.49
2016-10-08T00:24:15.162Z,61.19
2016-10-08T00:25:28.128Z,61.29
2016-10-08T00:26:41.865Z,61.39
2016-10-08T00:27:55.453Z,61
2016-10-08T00:29:08.497Z,60.62
2016-10-08T00:30:21.950Z,60.62
2016-10-08T00:31:34.972Z,60.52
2016-10-08T00:32:47.895Z,61.1
2016-10-08T00:34:00.258Z,60.81
2016-10-08T00:35:13.298Z,61
2016-10-08T00:36:26.339Z,60.91
2016-10-08T00:37:38.566Z,60.62
2016-10-08T00:38:50.970Z,60.42
2016-10-08T00:40:03.920Z,60.62
2016-10-08T00:41:17.407Z,60.14
2016-10-08T00:42:30.511Z,60.24
2016-10-08T00:43:43.937Z,59.85
2016-10-08T00:44:57.405Z,60.3
2016-10-08T00:46:09.864Z,60.33
2016-10-08T00:47:22.777Z,60.24
2016-10-08T00:48:35.682Z,60.33
2016-10-08T00:49:48.113Z,59.92
2016-10-08T00:51:01.030Z,60.24
2016-10-08T00:52:14.459Z,59.75
2016-10-08T00:53:28.102Z,60.04
2016-10-08T00:54:41.634Z,60.04
2016-10-08T00:55:54.579Z,59.92
2016-10-08T00:57:07.505Z,59.92
2016-10-08T00:58:20.447Z,60.11
2016-10-08T00:59:33.081Z,59.92
2016-10-08T01:00:46.568Z,59.92
2016-10-08T01:01:58.464Z,59.85
2016-10-08T01:03:11.887Z,59.75
2016-10-08T01:04:25.035Z,59.94
2016-10-08T01:05:37.994Z,59.72
2016-10-08T01:06:50.920Z,59.92
2016-10-08T01:08:04.419Z,60.04
2016-10-08T01:09:17.459Z,60.01
2016-10-08T01:10:29.935Z,59.63
2016-10-08T01:11:42.907Z,60.14
2016-10-08T01:12:56.352Z,60.14
2016-10-08T01:14:09.857Z,60.42
2016-10-08T01:15:22.921Z,60.14
2016-10-08T01:16:35.854Z,60.42
2016-10-08T01:17:49.289Z,60.11
2016-10-08T01:19:02.776Z,60.21
2016-10-08T01:20:15.715Z,60.11
2016-10-08T01:21:28.722Z,59.63
2016-10-08T01:22:42.195Z,59.92
2016-10-08T01:23:54.647Z,60.11
2016-10-08T01:25:08.217Z,60.21
2016-10-08T01:26:21.567Z,59.92
2016-10-08T01:27:34.961Z,59.82
2016-10-08T01:28:48.474Z,60.11
2016-10-08T01:30:01.982Z,60.11
2016-10-08T01:31:15.584Z,59.92
2016-10-08T01:32:27.798Z,59.92
2016-10-08T01:33:41.292Z,59.92
2016-10-08T01:34:54.902Z,59.82
2016-10-08T01:36:07.875Z,59.82
2016-10-08T01:37:20.544Z,59.82
2016-10-08T01:38:34.014Z,60.01
2016-10-08T01:39:47.427Z,60.21
2016-10-08T01:41:00.315Z,60.49
2016-10-08T01:42:13.845Z,60.49
2016-10-08T01:43:27.436Z,60.21
2016-10-08T01:44:40.380Z,60.3
2016-10-08T01:45:53.883Z,59.92
2016-10-08T01:47:06.813Z,59.82
2016-10-08T01:48:20.506Z,60.01
2016-10-08T01:49:33.453Z,59.92
2016-10-08T01:50:46.474Z,59.92
2016-10-08T01:51:58.866Z,59.92
2016-10-08T01:53:11.849Z,60.11
2016-10-08T01:54:25.289Z,59.63
2016-10-08T01:55:38.190Z,59.72
2016-10-08T01:56:51.214Z,59.53
2016-10-08T01:58:04.213Z,59.53
2016-10-08T01:59:16.828Z,59.44
2016-10-08T02:00:30.359Z,59.24
2016-10-08T02:01:42.771Z,59.53
2016-10-08T02:02:56.249Z,59.82
2016-10-08T02:04:09.223Z,58.86
2016-10-08T02:05:22.816Z,59.05
2016-10-08T02:06:35.318Z,59.15
2016-10-08T02:07:47.797Z,58.86
2016-10-08T02:09:00.217Z,59.72
2016-10-08T02:10:12.904Z,59.34
2016-10-08T02:11:26.508Z,59.44
2016-10-08T02:12:39.548Z,59.44
2016-10-08T02:13:52.447Z,59.34
2016-10-08T02:15:05.851Z,59.34
2016-10-08T02:16:18.819Z,60.01
2016-10-08T02:17:32.322Z,59.63
2016-10-08T02:18:45.285Z,59.72
2016-10-08T02:19:57.729Z,60.08
2016-10-08T02:21:10.891Z,60.17
2016-10-08T02:22:24.537Z,60.46
2016-10-08T02:23:37.993Z,60.56
2016-10-08T02:24:51.436Z,60.66
2016-10-08T02:26:05.047Z,60.56
2016-10-08T02:27:18.545Z,61.43
2016-10-08T02:28:32.003Z,61.23
2016-10-08T02:29:43.902Z,61.71
2016-10-08T02:30:57.376Z,61.49
2016-10-08T02:32:10.491Z,61.58
2016-10-08T02:33:23.450Z,62.16
2016-10-08T02:34:36.395Z,62.07
2016-10-08T02:35:49.928Z,61.97
2016-10-08T02:37:02.884Z,62.26
2016-10-08T02:38:15.495Z,62.26
2016-10-08T02:39:29.012Z,62.26
2016-10-08T02:40:42.553Z,62.93
2016-10-08T02:41:55.477Z,62.55
2016-10-08T02:43:09.191Z,62.35
2016-10-08T02:44:22.260Z,62.74
2016-10-08T02:45:34.747Z,62.93
2016-10-08T02:46:47.756Z,63.89
2016-10-08T02:47:59.653Z,63.89
2016-10-08T02:49:12.603Z,64.28
2016-10-08T02:50:26.169Z,64.37
2016-10-08T02:51:39.192Z,63.99
2016-10-08T02:52:51.686Z,64.47
2016-10-08T02:54:05.147Z,64.66
2016-10-08T02:55:18.663Z,64.09
2016-10-08T02:56:31.100Z,64.47
2016-10-08T02:57:43.504Z,64.18
2016-10-08T02:58:56.411Z,63.89
2016-10-08T03:00:11.575Z,64.28
2016-10-08T03:01:29.921Z,64.66
2016-10-08T03:02:49.409Z,64.37
2016-10-08T03:04:08.490Z,64.53
2016-10-08T03:05:25.309Z,64.15
2016-10-08T03:06:37.181Z,64.82
2016-10-08T03:07:49.610Z,64.92
2016-10-08T03:09:02.040Z,64.82
2016-10-08T03:10:15.753Z,65.01
2016-10-08T03:11:29.199Z,64.63
2016-10-08T03:12:42.169Z,64.25
2016-10-08T03:13:55.178Z,65.11
2016-10-08T03:15:08.216Z,65.01
2016-10-08T03:16:20.686Z,64.63
2016-10-08T03:17:33.649Z,64.82
2016-10-08T03:18:46.093Z,64.82
2016-10-08T03:19:59.147Z,65.2
2016-10-08T03:21:12.138Z,65.88
2016-10-08T03:22:24.032Z,65.97
2016-10-08T03:23:36.957Z,65.78
2016-10-08T03:24:49.917Z,66.16
2016-10-08T03:26:03.544Z,66.16
2016-10-08T03:27:16.611Z,65.97
2016-10-08T03:28:29.023Z,66.46
2016-10-08T03:29:41.939Z,65.97
2016-10-08T03:30:55.671Z,66.16
2016-10-08T03:32:08.590Z,66.16
2016-10-08T03:33:21.499Z,66.07
2016-10-08T03:34:35.028Z,66.26
2016-10-08T03:35:48.532Z,66.36
2016-10-08T03:37:01.712Z,66.26
2016-10-08T03:38:14.707Z,66.07
2016-10-08T03:39:28.138Z,65.78
2016-10-08T03:40:41.063Z,65.78
2016-10-08T03:41:54.225Z,66.16
2016-10-08T03:43:07.174Z,65.78
2016-10-08T03:44:19.622Z,65.97
2016-10-08T03:45:31.512Z,65.97
2016-10-08T03:46:45.039Z,65.97
2016-10-08T03:47:58.671Z,65.69
2016-10-08T03:49:12.124Z,65.97
2016-10-08T03:50:24.075Z,65.4
2016-10-08T03:51:37.569Z,65.59
2016-10-08T03:52:51.159Z,65.49
2016-10-08T03:54:04.144Z,65.88
2016-10-08T03:55:17.107Z,65.97
2016-10-08T03:56:30.573Z,65.97
2016-10-08T03:57:43.550Z,65.01
2016-10-08T03:58:55.577Z,65.3
2016-10-08T04:00:07.955Z,65.49
2016-10-08T04:01:20.391Z,65.4
2016-10-08T04:02:33.859Z,65.88
2016-10-08T04:03:46.015Z,65.59
2016-10-08T04:04:58.984Z,65.97
2016-10-08T04:06:12.455Z,65.97
2016-10-08T04:07:25.449Z,65.4
2016-10-08T04:08:37.867Z,64.92
2016-10-08T04:09:51.561Z,65.11
2016-10-08T04:11:05.055Z,64.92
2016-10-08T04:12:17.641Z,65.01
2016-10-08T04:13:30.640Z,65.3
2016-10-08T04:14:43.253Z,65.49
2016-10-08T04:15:56.239Z,65.49
2016-10-08T04:17:09.199Z,65.97
2016-10-08T04:18:22.149Z,65.49
2016-10-08T04:19:35.780Z,65.78
2016-10-08T04:20:48.696Z,65.69
2016-10-08T04:22:01.147Z,65.88
2016-10-08T04:23:14.065Z,65.4
2016-10-08T04:24:27.005Z,66.13
2016-10-08T04:25:40.170Z,66.13
2016-10-08T04:26:53.126Z,66.03
2016-10-08T04:28:06.114Z,66.71
2016-10-08T04:29:18.565Z,66.23
2016-10-08T04:30:31.525Z,66.13
2016-10-08T04:31:46.499Z,66.61
2016-10-08T04:32:58.984Z,66.61
2016-10-08T04:34:12.456Z,66.13
2016-10-08T04:35:25.966Z,66.13
2016-10-08T04:36:39.552Z,66.23
2016-10-08T04:37:52.449Z,66.03
2016-10-08T04:39:05.860Z,66.42
2016-10-08T04:40:18.825Z,66.42
2016-10-08T04:41:31.909Z,66.13
2016-10-08T04:42:45.541Z,66.13
2016-10-08T04:43:58.559Z,66.13
2016-10-08T04:45:11.529Z,66.33
2016-10-08T04:46:24.475Z,65.84
2016-10-08T04:47:37.031Z,65.75
2016-10-08T04:48:50.049Z,65.65
2016-10-08T04:50:03.546Z,65.65
2016-10-08T04:51:16.939Z,65.2
2016-10-08T04:52:29.430Z,65.17
2016-10-08T04:53:42.838Z,65.59
2016-10-08T04:54:56.014Z,64.92
2016-10-08T04:56:09.060Z,64.82
2016-10-08T04:57:22.575Z,64.4
2016-10-08T04:58:35.171Z,64.59
2016-10-08T04:59:48.351Z,65.27
2016-10-08T05:01:00.368Z,64.89
2016-10-08T05:02:11.789Z,64.89
2016-10-08T05:03:24.303Z,64.89
2016-10-08T05:04:37.413Z,64.98
2016-10-08T05:05:50.920Z,64.89
2016-10-08T05:07:03.433Z,64.89
2016-10-08T05:08:16.409Z,65.08
2016-10-08T05:09:29.484Z,64.89
2016-10-08T05:10:43.051Z,64.98
2016-10-08T05:11:55.458Z,65.17
2016-10-08T05:13:07.353Z,64.98
2016-10-08T05:14:19.786Z,64.79
2016-10-08T05:15:33.258Z,64.98
2016-10-08T05:16:46.334Z,64.98
2016-10-08T05:17:58.333Z,64.98
2016-10-08T05:19:11.793Z,65.17
2016-10-08T05:20:25.746Z,65.84
2016-10-08T05:21:38.144Z,65.17
2016-10-08T05:22:50.668Z,65.46
2016-10-08T05:24:04.282Z,65.94
2016-10-08T05:25:17.232Z,65.75
2016-10-08T05:26:30.904Z,66.03
2016-10-08T05:27:43.400Z,65.84
2016-10-08T05:28:56.002Z,66.03
2016-10-08T05:30:09.007Z,65.56
2016-10-08T05:31:22.213Z,65.56
2016-10-08T05:32:35.802Z,65.56
2016-10-08T05:33:49.314Z,65.65
2016-10-08T05:35:02.304Z,66.03
2016-10-08T05:36:16.138Z,65.84
2016-10-08T05:37:27.506Z,65.94
2016-10-08T05:38:40.539Z,65.56
2016-10-08T05:39:53.487Z,65.75
2016-10-08T05:41:05.958Z,65.46
2016-10-08T05:42:19.206Z,65.94
2016-10-08T05:43:32.119Z,65.17
2016-10-08T05:44:45.649Z,66.03
2016-10-08T05:45:59.198Z,65.36
2016-10-08T05:47:11.657Z,65.65
2016-10-08T05:48:24.823Z,65.94
2016-10-08T05:49:37.876Z,65.75
2016-10-08T05:50:50.868Z,66.23
2016-10-08T05:52:03.288Z,66
2016-10-08T05:53:15.939Z,65.91
2016-10-08T05:54:28.927Z,66.1
2016-10-08T05:55:42.137Z,66.1
2016-10-08T05:56:55.608Z,66
2016-10-08T05:58:08.537Z,66.13
2016-10-08T05:59:22.312Z,66.42
2016-10-08T06:00:35.264Z,65.72
2016-10-08T06:01:48.797Z,66.13
2016-10-08T06:03:01.759Z,65.65
2016-10-08T06:04:15.345Z,65.94
2016-10-08T06:05:27.499Z,65.65
2016-10-08T06:06:40.505Z,65.84
2016-10-08T06:07:53.147Z,65.62
2016-10-08T06:09:06.148Z,65.36
2016-10-08T06:10:19.844Z,66.42
2016-10-08T06:11:32.790Z,66.1
2016-10-08T06:12:46.301Z,66.1
2016-10-08T06:13:59.228Z,66
2016-10-08T06:15:12.310Z,66.1
2016-10-08T06:16:25.906Z,66.86
2016-10-08T06:17:38.305Z,66.39
2016-10-08T06:18:51.776Z,66.67
2016-10-08T06:20:04.212Z,66.67
2016-10-08T06:21:17.108Z,66.67
2016-10-08T06:22:29.071Z,66.19
2016-10-08T06:23:42.185Z,66.39
2016-10-08T06:24:54.581Z,66.67
2016-10-08T06:26:08.221Z,66.39
2016-10-08T06:27:20.642Z,66.29
2016-10-08T06:28:34.127Z,66.29
2016-10-08T06:29:47.266Z,66.39
2016-10-08T06:31:00.157Z,66.49
2016-10-08T06:32:13.578Z,66.49
2016-10-08T06:33:26.578Z,66.29
2016-10-08T06:34:40.094Z,66.29
2016-10-08T06:35:53.823Z,66.58
2016-10-08T06:37:07.458Z,66.49
2016-10-08T06:38:20.380Z,66.67
2016-10-08T06:39:34.376Z,66.67
2016-10-08T06:40:51.185Z,66.49
2016-10-08T06:42:06.548Z,66.49
2016-10-08T06:43:20.074Z,66.67
2016-10-08T06:44:32.527Z,66
2016-10-08T06:45:44.953Z,66.1
2016-10-08T06:46:58.379Z,66
2016-10-08T06:48:10.837Z,66.29
2016-10-08T06:49:24.286Z,66.19
2016-10-08T06:50:37.219Z,66.39
2016-10-08T06:51:51.792Z,66.29
2016-10-08T06:53:08.043Z,66.19
2016-10-08T06:54:25.145Z,65.91
2016-10-08T06:55:39.584Z,66.19
2016-10-08T06:56:56.851Z,66
2016-10-08T06:58:14.271Z,66
2016-10-08T06:59:28.747Z,65.91
2016-10-08T07:00:43.634Z,66.49
2016-10-08T07:02:00.628Z,66.29
2016-10-08T07:03:15.372Z,66.64
2016-10-08T07:04:29.881Z,67.02
2016-10-08T07:05:47.433Z,66.83
2016-10-08T07:06:59.376Z,67.02
2016-10-08T07:08:12.320Z,66.64
2016-10-08T07:09:25.896Z,66.55
2016-10-08T07:10:38.912Z,67.02
2016-10-08T07:11:51.421Z,67.02
2016-10-08T07:13:04.386Z,66.93
2016-10-08T07:14:17.911Z,67.02
2016-10-08T07:15:30.871Z,66.64
2016-10-08T07:16:43.841Z,66.83
2016-10-08T07:17:58.524Z,67.02
2016-10-08T07:19:11.706Z,66.93
2016-10-08T07:20:24.021Z,67.02
2016-10-08T07:21:37.029Z,66.55
2016-10-08T07:22:49.536Z,66.58
2016-10-08T07:24:02.627Z,66.67
2016-10-08T07:25:15.559Z,66.58
2016-10-08T07:26:27.968Z,67.06
2016-10-08T07:27:41.483Z,66.96
2016-10-08T07:28:55.119Z,67.69
2016-10-08T07:30:08.710Z,67.5
2016-10-08T07:31:22.223Z,67.5
2016-10-08T07:32:35.248Z,67.6
2016-10-08T07:33:48.736Z,67.79
2016-10-08T07:35:02.263Z,67.89
2016-10-08T07:36:16.097Z,68.08
2016-10-08T07:37:29.550Z,68.56
2016-10-08T07:38:42.706Z,68.27
2016-10-08T07:39:55.670Z,68.08
2016-10-08T07:41:08.861Z,68.46
2016-10-08T07:42:21.331Z,67.79
2016-10-08T07:43:34.551Z,68.08
2016-10-08T07:44:47.977Z,67.89
2016-10-08T07:46:01.271Z,67.79
2016-10-08T07:47:13.848Z,67.79
2016-10-08T07:48:26.840Z,67.89
2016-10-08T07:49:39.303Z,68.08
2016-10-08T07:50:52.357Z,67.6
2016-10-08T07:52:06.026Z,67.5
2016-10-08T07:53:19.796Z,67.6
2016-10-08T07:54:32.750Z,67.6
2016-10-08T07:55:46.318Z,67.99
2016-10-08T07:57:01.262Z,67.99
2016-10-08T07:58:14.815Z,67.99
2016-10-08T07:59:28.286Z,68.66
2016-10-08T08:00:41.799Z,68.24
2016-10-08T08:01:53.736Z,68.24
2016-10-08T08:03:06.421Z,67.85
2016-10-08T08:04:18.851Z,68.24
2016-10-08T08:05:32.295Z,68.43
2016-10-08T08:06:44.309Z,68.24
2016-10-08T08:07:56.726Z,68.24
2016-10-08T08:09:09.777Z,68.91
2016-10-08T08:10:23.366Z,68.91
2016-10-08T08:11:36.962Z,69.01
2016-10-08T08:12:49.968Z,69.07
2016-10-08T08:14:03.501Z,69.48
2016-10-08T08:15:17.078Z,69.68
2016-10-08T08:16:30.021Z,69.54
2016-10-08T08:17:42.949Z,69.39
2016-10-08T08:18:54.916Z,69.54
2016-10-08T08:20:07.604Z,69.58
2016-10-08T08:21:21.202Z,69.74
2016-10-08T08:22:34.702Z,70.41
2016-10-08T08:23:47.639Z,70.21
2016-10-08T08:25:00.193Z,70.31
2016-10-08T08:26:13.654Z,70.5
2016-10-08T08:27:27.153Z,70.31
2016-10-08T08:28:40.619Z,70.6
2016-10-08T08:29:54.102Z,70.7
2016-10-08T08:31:06.537Z,71.46
2016-10-08T08:32:19.555Z,70.98
2016-10-08T08:33:32.979Z,71.17
2016-10-08T08:34:46.507Z,71.08
2016-10-08T08:35:59.748Z,71.17
2016-10-08T08:37:13.219Z,71.08
2016-10-08T08:38:25.677Z,71.08
2016-10-08T08:39:38.684Z,70.98
2016-10-08T08:40:51.642Z,71.08
2016-10-08T08:42:04.827Z,71.17
2016-10-08T08:43:17.357Z,71.46
2016-10-08T08:44:29.281Z,71.71
2016-10-08T08:45:41.727Z,72.09
2016-10-08T08:46:55.278Z,71.81
2016-10-08T08:48:08.747Z,71.81
2016-10-08T08:49:21.680Z,71.91
2016-10-08T08:50:34.707Z,71.91
2016-10-08T08:51:48.178Z,71.52
2016-10-08T08:53:01.347Z,72
2016-10-08T08:54:13.782Z,71.91
2016-10-08T08:55:27.254Z,71.62
2016-10-08T08:56:40.197Z,71.52
2016-10-08T08:57:53.214Z,72.19
2016-10-08T08:59:05.654Z,72.09
2016-10-08T09:00:18.115Z,72.19
2016-10-08T09:01:31.130Z,72.19
2016-10-08T09:02:44.062Z,72.8
2016-10-08T09:03:56.424Z,72.77
2016-10-08T09:05:09.443Z,72.58
2016-10-08T09:06:22.430Z,72.58
2016-10-08T09:07:34.842Z,72.86
2016-10-08T09:08:47.552Z,72.77
2016-10-08T09:10:00.685Z,72.58
2016-10-08T09:11:13.704Z,72.38
2016-10-08T09:12:26.169Z,72.19
2016-10-08T09:13:39.167Z,72.29
2016-10-08T09:14:52.748Z,72.29
2016-10-08T09:16:06.254Z,72.48
2016-10-08T09:17:18.698Z,72.19
2016-10-08T09:18:31.675Z,72.32
2016-10-08T09:19:44.415Z,72.52
2016-10-08T09:20:57.346Z,72.52
2016-10-08T09:22:10.817Z,72.13
2016-10-08T09:23:23.821Z,72.42
2016-10-08T09:24:36.329Z,72.42
2016-10-08T09:25:49.437Z,72.8
2016-10-08T09:27:01.900Z,72.8
2016-10-08T09:28:14.872Z,72.8
2016-10-08T09:29:28.350Z,72.8
2016-10-08T09:30:42.106Z,72.9
2016-10-08T09:31:55.081Z,72.42
2016-10-08T09:33:07.983Z,72.61
2016-10-08T09:34:20.408Z,72.8
2016-10-08T09:35:33.949Z,72.99
2016-10-08T09:36:46.906Z,72.32
2016-10-08T09:37:59.384Z,72.32
2016-10-08T09:39:11.834Z,72.52
2016-10-08T09:40:23.736Z,72.61
2016-10-08T09:41:37.232Z,72.8
2016-10-08T09:42:48.600Z,72.8
2016-10-08T09:44:01.109Z,72.8
2016-10-08T09:45:14.592Z,72.8
2016-10-08T09:46:27.560Z,72.42
2016-10-08T09:47:41.155Z,72.61
2016-10-08T09:48:54.101Z,72.42
2016-10-08T09:50:07.127Z,72.52
2016-10-08T09:51:20.082Z,72.52
2016-10-08T09:52:33.586Z,72.9
2016-10-08T09:53:47.094Z,72.8
2016-10-08T09:54:59.529Z,72.23
2016-10-08T09:56:11.468Z,72.13
2016-10-08T09:57:24.920Z,71.84
2016-10-08T09:58:37.365Z,72.03
2016-10-08T09:59:50.277Z,72.03
2016-10-08T10:01:02.688Z,71.56
2016-10-08T10:02:16.293Z,72.13
2016-10-08T10:03:29.445Z,71.94
2016-10-08T10:04:42.321Z,71.4
2016-10-08T10:05:54.688Z,71.11
2016-10-08T10:07:07.097Z,71.5
2016-10-08T10:08:19.580Z,70.92
2016-10-08T10:09:32.306Z,71.4
2016-10-08T10:10:44.758Z,71.5
2016-10-08T10:11:57.225Z,71.21
2016-10-08T10:13:10.194Z,71.21
2016-10-08T10:14:23.768Z,71.59
2016-10-08T10:15:37.211Z,70.83
2016-10-08T10:16:49.105Z,70.64
2016-10-08T10:18:01.060Z,70.44
2016-10-08T10:19:14.010Z,70.64
2016-10-08T10:20:27.498Z,70.64
2016-10-08T10:21:41.013Z,70.54
2016-10-08T10:22:54.542Z,70.83
2016-10-08T10:24:07.461Z,70.67
2016-10-08T10:25:20.496Z,70.67
2016-10-08T10:26:34.055Z,70.76
2016-10-08T10:27:45.407Z,70.54
2016-10-08T10:28:57.254Z,70.83
2016-10-08T10:30:10.769Z,70.86
2016-10-08T10:31:22.659Z,70.54
2016-10-08T10:32:35.621Z,70.57
2016-10-08T10:33:48.096Z,70.64
2016-10-08T10:35:00.589Z,70.54
2016-10-08T10:36:13.632Z,70.76
2016-10-08T10:37:27.181Z,70.38
2016-10-08T10:38:40.716Z,70.83
2016-10-08T10:39:52.688Z,70.38
2016-10-08T10:41:05.662Z,70.19
2016-10-08T10:42:18.538Z,70.67
2016-10-08T10:43:32.055Z,70.09
2016-10-08T10:44:43.987Z,70.09
2016-10-08T10:45:56.431Z,70.76
2016-10-08T10:47:09.577Z,70.76
2016-10-08T10:48:22.512Z,70.76
2016-10-08T10:49:34.918Z,70.19
2016-10-08T10:50:47.298Z,70.29
2016-10-08T10:52:00.213Z,70.67
2016-10-08T10:53:13.846Z,70.57
2016-10-08T10:54:26.846Z,70.09
2016-10-08T10:55:39.263Z,70
2016-10-08T10:56:51.703Z,70.38
2016-10-08T10:58:04.985Z,70.38
2016-10-08T10:59:17.926Z,69.52
2016-10-08T11:00:31.469Z,69.81
2016-10-08T11:01:43.991Z,69.52
2016-10-08T11:02:56.446Z,69.74
2016-10-08T11:04:08.900Z,69.46
2016-10-08T11:05:21.857Z,69.74
2016-10-08T11:06:35.363Z,69.46
2016-10-08T11:07:48.247Z,69.17
2016-10-08T11:09:01.289Z,68.88
2016-10-08T11:10:14.989Z,68.5
2016-10-08T11:11:28.505Z,68.21
2016-10-08T11:12:41.991Z,68.12
2016-10-08T11:13:55.526Z,67.83
2016-10-08T11:15:08.512Z,67.73
2016-10-08T11:16:21.450Z,67.83
2016-10-08T11:17:34.891Z,67.63
2016-10-08T11:18:48.458Z,67.73
2016-10-08T11:20:01.893Z,67.54
2016-10-08T11:21:14.870Z,67.09
2016-10-08T11:22:27.855Z,67.09
2016-10-08T11:23:40.852Z,66.61
2016-10-08T11:24:53.542Z,66.52
2016-10-08T11:26:05.405Z,66.13
2016-10-08T11:27:18.323Z,66.03
2016-10-08T11:28:31.318Z,66.13
2016-10-08T11:29:44.835Z,65.75
2016-10-08T11:30:58.418Z,65.97
2016-10-08T11:32:11.406Z,65.4
2016-10-08T11:33:24.368Z,65.4
2016-10-08T11:34:37.277Z,65.11
2016-10-08T11:35:50.737Z,64.72
2016-10-08T11:37:04.360Z,64.92
2016-10-08T11:38:17.890Z,65.01
2016-10-08T11:39:30.943Z,63.96
2016-10-08T11:40:43.423Z,63.96
2016-10-08T11:41:56.834Z,64.15
2016-10-08T11:43:09.867Z,63.67
2016-10-08T11:44:22.545Z,63.79
2016-10-08T11:45:35.516Z,63.7
2016-10-08T11:46:49.212Z,63.51
2016-10-08T11:48:01.708Z,63.41
2016-10-08T11:49:14.706Z,63.6
2016-10-08T11:50:27.695Z,63.02
2016-10-08T11:51:39.627Z,63.25
2016-10-08T11:52:53.168Z,63.54
2016-10-08T11:54:06.867Z,62.55
2016-10-08T11:55:19.307Z,62.58
2016-10-08T11:56:32.986Z,62.58
2016-10-08T11:57:46.771Z,61.91
2016-10-08T11:58:59.756Z,60.17
2016-10-08T12:00:12.703Z,60.17
2016-10-08T12:01:26.443Z,59.41
2016-10-08T12:02:39.899Z,59.69
2016-10-08T12:03:52.924Z,58.92
2016-10-08T12:05:05.376Z,58.37
2016-10-08T12:06:18.960Z,58.37
2016-10-08T12:07:32.478Z,58.47
2016-10-08T12:08:45.638Z,57.8
2016-10-08T12:09:58.683Z,57.99
2016-10-08T12:11:12.211Z,57.51
2016-10-08T12:12:25.799Z,57.6
2016-10-08T12:13:39.279Z,57.42
2016-10-08T12:14:52.917Z,56.16
2016-10-08T12:16:05.296Z,55.43
2016-10-08T12:17:18.265Z,55.23
2016-10-08T12:18:31.220Z,55.23
2016-10-08T12:19:44.368Z,54.94
2016-10-08T12:20:57.252Z,55.13
2016-10-08T12:22:09.686Z,54.56
2016-10-08T12:23:22.706Z,54.56
2016-10-08T12:24:35.637Z,53.11
2016-10-08T12:25:48.759Z,52.44
2016-10-08T12:27:01.842Z,53.11
2016-10-08T12:28:15.333Z,52.73
2016-10-08T12:29:28.014Z,52.73
2016-10-08T12:30:41.656Z,53.23
2016-10-08T12:31:54.574Z,52.95
2016-10-08T12:33:07.016Z,53.23
2016-10-08T12:34:20.556Z,52.66
2016-10-08T12:35:33.989Z,53.17
2016-10-08T12:36:46.655Z,52.4
2016-10-08T12:37:59.611Z,51.82
2016-10-08T12:39:12.061Z,51.34
2016-10-08T12:40:24.170Z,50.27
2016-10-08T12:41:37.869Z,50.18
2016-10-08T12:42:50.803Z,50.18
2016-10-08T12:44:03.745Z,50.18
2016-10-08T12:45:16.774Z,49.79
2016-10-08T12:46:28.689Z,49.51
2016-10-08T12:47:42.270Z,49.43
2016-10-08T12:48:55.408Z,48.95
2016-10-08T12:50:08.411Z,48.38
2016-10-08T12:51:21.355Z,48.08
2016-10-08T12:52:35.000Z,47.6
2016-10-08T12:53:47.999Z,47.03
2016-10-08T12:55:00.974Z,47.22
2016-10-08T12:56:14.475Z,46.55
2016-10-08T12:57:27.476Z,46.64
2016-10-08T12:58:40.676Z,46.83
2016-10-08T12:59:53.168Z,46.76
2016-10-08T13:01:06.124Z,46.28
2016-10-08T13:02:17.550Z,46.28
2016-10-08T13:03:30.697Z,46.66
2016-10-08T13:04:44.213Z,46.28
2016-10-08T13:05:57.160Z,45.6
2016-10-08T13:07:09.563Z,45.7
2016-10-08T13:08:21.930Z,45.82
2016-10-08T13:09:34.404Z,45.34
2016-10-08T13:10:47.917Z,45.43
2016-10-08T13:12:01.574Z,45.43
2016-10-08T13:13:14.543Z,45.34
2016-10-08T13:14:28.187Z,44.66
2016-10-08T13:15:41.125Z,44.76
2016-10-08T13:16:54.179Z,44.68
2016-10-08T13:18:06.827Z,43.52
2016-10-08T13:19:19.473Z,43.52
2016-10-08T13:20:32.514Z,44.2
2016-10-08T13:21:44.910Z,44.2
2016-10-08T13:22:56.832Z,44.2
2016-10-08T13:24:09.244Z,43.54
2016-10-08T13:25:22.453Z,43.54
2016-10-08T13:26:35.387Z,44.22
2016-10-08T13:27:48.403Z,44.22
2016-10-08T13:29:01.880Z,44.22
2016-10-08T13:30:13.805Z,44.22
2016-10-08T13:31:26.757Z,43.66
2016-10-08T13:32:40.278Z,43.47
2016-10-08T13:33:53.715Z,42.99
2016-10-08T13:35:06.636Z,42.89
2016-10-08T13:36:18.732Z,43.2
2016-10-08T13:37:31.221Z,43.01
2016-10-08T13:38:43.659Z,42.62
2016-10-08T13:39:57.162Z,42.43
2016-10-08T13:41:10.155Z,42.25
2016-10-08T13:42:22.581Z,42.25
2016-10-08T13:43:36.052Z,42.25
2016-10-08T13:44:49.542Z,42.07
2016-10-08T13:46:02.033Z,42.08
2016-10-08T13:47:15.641Z,41.7
2016-10-08T13:48:29.205Z,41.11
2016-10-08T13:49:42.645Z,39.67
2016-10-08T13:50:55.644Z,39.09
2016-10-08T13:52:09.202Z,39.47
2016-10-08T13:53:22.447Z,39.39
2016-10-08T13:54:34.881Z,38.91
2016-10-08T13:55:48.384Z,38.81
2016-10-08T13:57:01.348Z,38.33
2016-10-08T13:58:14.610Z,38.25
2016-10-08T13:59:27.107Z,38.45
2016-10-08T14:00:39.582Z,38.35
2016-10-08T14:01:53.008Z,37.48
2016-10-08T14:03:05.918Z,37.38
2016-10-08T14:04:18.917Z,36.91
2016-10-08T14:05:31.891Z,36.33
2016-10-08T14:06:44.323Z,36.24
2016-10-08T14:07:57.754Z,35.28
2016-10-08T14:09:10.857Z,34.81
2016-10-08T14:10:22.786Z,32.89
2016-10-08T14:11:34.230Z,32.05
2016-10-08T14:12:47.743Z,30.62
2016-10-08T14:14:00.729Z,29.19
2016-10-08T14:15:13.834Z,27.28
2016-10-08T14:16:26.780Z,25.26
2016-10-08T14:17:40.313Z,24.41
2016-10-08T14:18:53.315Z,22.67
2016-10-08T14:20:06.344Z,21.92
2016-10-08T14:21:19.943Z,21.25
2016-10-08T14:22:33.420Z,19.8
2016-10-08T14:23:45.777Z,18.74
2016-10-08T14:24:59.276Z,17.88
2016-10-08T14:26:13.078Z,17.11
2016-10-08T14:27:25.031Z,16.33
2016-10-08T14:28:38.049Z,15.84
2016-10-08T14:29:51.004Z,15.56
2016-10-08T14:31:04.100Z,15.85
2016-10-08T14:32:17.004Z,14.97
2016-10-08T14:33:29.454Z,14.39
2016-10-08T14:34:42.337Z,13.9
2016-10-08T14:35:55.346Z,13.71
2016-10-08T14:37:08.903Z,13.33
2016-10-08T14:38:21.911Z,12.45
2016-10-08T14:39:33.831Z,11.86
2016-10-08T14:40:45.765Z,11.66
2016-10-08T14:41:58.779Z,11.28
2016-10-08T14:43:11.762Z,11.18
2016-10-08T14:44:24.739Z,10.1
2016-10-08T14:45:37.691Z,10.39
2016-10-08T14:46:50.741Z,10
2016-10-08T14:48:04.479Z,9.71
2016-10-08T14:49:17.963Z,9.12
2016-10-08T14:50:31.532Z,9.22
2016-10-08T14:51:44.543Z,9.22
2016-10-08T14:52:57.714Z,8.83
2016-10-08T14:54:09.627Z,9.23
2016-10-08T14:55:22.087Z,8.25
2016-10-08T14:56:35.580Z,7.85
2016-10-08T14:57:49.059Z,7.35
2016-10-08T14:59:01.200Z,7.46
2016-10-08T15:00:14.232Z,6.96
2016-10-08T15:01:27.722Z,6.77
2016-10-08T15:02:41.186Z,6.68
2016-10-08T15:03:54.371Z,5.88
2016-10-08T15:05:07.345Z,5.88
2016-10-08T15:06:20.374Z,5.88
2016-10-08T15:07:32.897Z,5.49
2016-10-08T15:08:45.358Z,5.59
2016-10-08T15:09:58.336Z,5.4
2016-10-08T15:11:11.278Z,5.2
2016-10-08T15:12:23.924Z,4.8
2016-10-08T15:13:36.868Z,4.8
2016-10-08T15:14:50.483Z,3.8
2016-10-08T15:16:02.936Z,3.6
2016-10-08T15:17:15.365Z,3.2
2016-10-08T15:18:28.904Z,3.41
2016-10-08T15:19:41.876Z,3.8
2016-10-08T15:20:54.922Z,3.9
2016-10-08T15:22:06.876Z,4
2016-10-08T15:23:19.856Z,3.8
2016-10-08T15:24:33.278Z,3.61
2016-10-08T15:25:46.570Z,3.41
2016-10-08T15:26:59.016Z,3.01
2016-10-08T15:28:12.503Z,3.11
2016-10-08T15:29:25.482Z,3.11
2016-10-08T15:30:38.096Z,3.01
2016-10-08T15:31:50.523Z,2.51
2016-10-08T15:33:04.021Z,2.01
2016-10-08T15:34:16.959Z,1.81
2016-10-08T15:35:30.505Z,1.71
2016-10-08T15:36:44.135Z,1.4
2016-10-08T15:37:56.555Z,1.4
2016-10-08T15:39:09.031Z,1.31
2016-10-08T15:40:22.023Z,1.4
2016-10-08T15:41:35.035Z,1.51
2016-10-08T15:42:48.502Z,1.21
2016-10-08T15:44:01.512Z,1.1
2016-10-08T15:45:14.505Z,0.6
2016-10-08T15:46:26.993Z,0.6
2016-10-08T15:47:40.725Z,0.6
2016-10-08T15:48:53.115Z,0.5